Time,TemperatureF,DewpointF,PressureIn,WindDirection,WindDirectionDegrees,WindSpeedMPH,WindSpeedGustMPH,Humidity,HourlyPrecipIn,Conditions,Clouds,dailyrainin,SolarRadiationWatts/m^2,SoftwareType,DateUTC
2015-01-28 00:22:00,38.0,38.0,-100.00,North,-999,0.0,0.0,99,0.00,,,0.00,0.000000,,2015-01-28 06:22:00,
2015-01-28 00:32:00,38.0,38.0,-100.00,North,-999,0.0,0.0,99,0.00,,,0.00,0.000000,,2015-01-28 06:32:00,
2015-01-28 00:42:00,38.0,38.0,-100.00,North,-999,0.0,0.0,99,0.00,,,0.00,0.000000,,2015-01-28 06:42:00,
2015-01-28 00:52:00,38.0,38.0,-100.00,North,-999,0.0,0.0,99,0.00,,,0.00,0.000000,,2015-01-28 06:52:00,
2015-01-28 01:23:00,37.0,37.0,-100.00,SE,130,1.0,6.0,99,0.00,,,0.00,0.000000,,2015-01-28 07:23:00,
2015-01-28 01:32:00,37.0,37.0,-100.00,SE,130,1.0,6.0,99,0.00,,,0.00,0.000000,,2015-01-28 07:32:00,
2015-01-28 01:42:00,37.0,37.0,-100.00,SE,130,1.0,6.0,99,0.00,,,0.00,0.000000,,2015-01-28 07:42:00,
2015-01-28 08:22:00,36.0,36.0,-100.00,North,-999,0.0,0.0,100,-99.99,,,-99.99,33.000000,,2015-01-28 14:22:00,
2015-01-28 08:32:00,36.0,36.0,-100.00,North,-999,0.0,0.0,100,-99.99,,,-99.99,33.000000,,2015-01-28 14:32:00,
2015-01-28 08:42:00,36.0,36.0,-100.00,North,-999,0.0,0.0,100,-99.99,,,-99.99,33.000000,,2015-01-28 14:42:00,
2015-01-28 10:23:00,62.0,46.0,-100.00,SSE,153,1.0,8.0,56,0.00,,,0.00,382.000000,,2015-01-28 16:23:00,
2015-01-28 10:33:00,62.0,46.0,-100.00,SSE,153,1.0,8.0,56,0.00,,,0.00,382.000000,,2015-01-28 16:33:00,
2015-01-28 10:44:00,62.0,46.0,-100.00,SSE,153,1.0,8.0,56,0.00,,,0.00,382.000000,,2015-01-28 16:44:00,
2015-01-28 10:53:00,62.0,46.0,-100.00,SSE,153,1.0,8.0,56,0.00,,,0.00,382.000000,,2015-01-28 16:53:00,
2015-01-28 11:43:00,68.0,42.0,-100.00,SSE,150,4.0,12.0,39,0.00,,,0.00,522.000000,,2015-01-28 17:43:00,
2015-01-28 11:53:00,68.0,42.0,-100.00,SSE,150,4.0,12.0,39,0.00,,,0.00,522.000000,,2015-01-28 17:53:00,
2015-01-28 12:22:00,71.0,40.0,-100.00,South,180,1.0,15.0,33,0.00,,,0.00,611.000000,,2015-01-28 18:22:00,
2015-01-28 12:32:00,71.0,40.0,-100.00,South,180,1.0,15.0,33,0.00,,,0.00,611.000000,,2015-01-28 18:32:00,
2015-01-28 12:42:00,71.0,40.0,-100.00,South,180,1.0,15.0,33,0.00,,,0.00,611.000000,,2015-01-28 18:42:00,
2015-01-28 12:53:00,71.0,40.0,-100.00,South,180,1.0,15.0,33,0.00,,,0.00,611.000000,,2015-01-28 18:53:00,
2015-01-28 13:23:00,74.0,41.0,-100.00,SSW,202,1.0,16.0,31,0.00,,,0.00,639.000000,,2015-01-28 19:23:00,
2015-01-28 13:32:00,74.0,41.0,-100.00,SSW,202,1.0,16.0,31,0.00,,,0.00,639.000000,,2015-01-28 19:32:00,
2015-01-28 13:42:00,74.0,41.0,-100.00,SSW,202,1.0,16.0,31,0.00,,,0.00,639.000000,,2015-01-28 19:42:00,
2015-01-28 13:52:00,74.0,41.0,-100.00,SSW,202,1.0,16.0,31,0.00,,,0.00,639.000000,,2015-01-28 19:52:00,
2015-01-28 14:22:00,76.0,42.0,-100.00,South,175,7.0,15.0,30,0.00,,,0.00,605.000000,,2015-01-28 20:22:00,
2015-01-28 14:33:00,76.0,42.0,-100.00,South,175,7.0,15.0,30,0.00,,,0.00,605.000000,,2015-01-28 20:33:00,
2015-01-28 14:43:00,76.0,42.0,-100.00,South,175,7.0,15.0,30,0.00,,,0.00,605.000000,,2015-01-28 20:43:00,
2015-01-28 14:52:00,76.0,42.0,-100.00,South,175,7.0,15.0,30,0.00,,,0.00,605.000000,,2015-01-28 20:52:00,
2015-01-28 15:22:00,76.0,42.0,-100.00,South,175,1.0,19.0,30,0.00,,,0.00,510.000000,,2015-01-28 21:22:00,
2015-01-28 15:33:00,76.0,42.0,-100.00,South,175,1.0,19.0,30,0.00,,,0.00,510.000000,,2015-01-28 21:33:00,
2015-01-28 15:44:00,76.0,42.0,-100.00,South,175,1.0,19.0,30,0.00,,,0.00,510.000000,,2015-01-28 21:44:00,
2015-01-28 15:53:00,76.0,42.0,-100.00,South,175,1.0,19.0,30,0.00,,,0.00,510.000000,,2015-01-28 21:53:00,